Strona główna
METAR-TAF:

METAR-TAF

Lotnisko :

Orange County Airport

Montgomery, Nowy Jork, Stany Zjednoczone

Szerokość geograficzna: 41-30-33N, Długość geograficzna: 074-15-54W, wysokość: 111 m

Aktualna obserwacja pogody

Raport powstał 55 minut temu, godzina 08:54 UTC
Wiatr 12 kt od zachód w porywach dochodzący do 20 kt
Temperatura -3°C
Wilgotność 42%
Ciśnienie 1008 hPa
Widzialność: 16.1 km
Mało chmury na wysokości 6500 ft

METAR: KMGJ 280854Z AUTO 26012G20KT 10SM FEW065 M03/M14 A2976 RMK AO2 SLP079 T10331139 53002

czas: 04:49 (09:49 UTC)


TAF: brakujący

Obserwacja i prognoza pogody dla ponad 4000 lotnisk (raport METAR i TAF).

Dostępne stacje oznaczono żółtymi i czerwonymi punktami na mapie.

Najedź kursorem aby zobaczyć nazwę stacji.

Kliknij aby zobaczyć obserwacje i prognozy pogody.

Aby zmienić mapę: kliknij na zielony przycisk z czarnym krzyżykiem, aby powiększyć; na zielony przycisk z myślnikiem, aby pomniejszyć; na zielone strzałki, aby przejść do map sąsiednich.


METAR-TAF: